createdAt,value
2019-01-16T00:02:05.332Z,11.00
2019-01-16T00:04:51.966Z,18.45
2019-01-16T00:07:38.614Z,10.53
2019-01-16T00:10:25.401Z,15.30
2019-01-16T00:13:12.024Z,13.20
2019-01-16T00:15:58.662Z,14.45
2019-01-16T00:18:45.314Z,13.98
2019-01-16T00:21:31.936Z,9.88
2019-01-16T00:24:18.559Z,11.90
2019-01-16T00:27:03.361Z,10.13
2019-01-16T00:29:50.001Z,19.52
2019-01-16T00:32:36.649Z,12.33
2019-01-16T00:35:23.867Z,14.53
2019-01-16T00:38:10.504Z,11.10
2019-01-16T00:40:57.140Z,11.75
2019-01-16T00:43:43.737Z,11.88
2019-01-16T00:46:30.402Z,13.85
2019-01-16T00:49:17.059Z,13.00
2019-01-16T00:52:03.697Z,12.70
2019-01-16T00:54:50.311Z,14.60
2019-01-16T00:57:35.353Z,21.30
2019-01-16T01:00:22.196Z,16.97
2019-01-16T01:03:08.870Z,11.95
2019-01-16T01:05:54.845Z,13.80
2019-01-16T01:08:41.458Z,16.50
2019-01-16T01:11:28.072Z,26.73
2019-01-16T01:14:14.706Z,13.00
2019-01-16T01:17:01.369Z,14.50
2019-01-16T01:19:47.985Z,11.95
2019-01-16T01:22:34.621Z,10.85
2019-01-16T01:25:21.308Z,13.55
2019-01-16T01:28:07.998Z,17.25
2019-01-16T01:30:54.598Z,17.32
2019-01-16T01:33:41.214Z,11.85
2019-01-16T01:36:27.888Z,11.50
2019-01-16T01:39:14.500Z,17.55
2019-01-16T01:42:01.177Z,13.00
2019-01-16T01:44:47.812Z,14.28
2019-01-16T01:47:34.523Z,16.52
2019-01-16T01:50:21.149Z,10.60
2019-01-16T01:53:07.776Z,11.48
2019-01-16T01:55:54.457Z,11.80
2019-01-16T01:58:41.049Z,15.85
2019-01-16T02:01:27.669Z,11.25
2019-01-16T02:04:14.330Z,11.88
2019-01-16T02:07:00.933Z,11.73
2019-01-16T02:09:47.569Z,17.02
2019-01-16T02:12:34.187Z,14.10
2019-01-16T02:15:20.831Z,14.80
2019-01-16T02:18:07.444Z,15.25
2019-01-16T02:20:54.094Z,15.93
2019-01-16T02:23:35.541Z,14.58
2019-01-16T02:26:22.180Z,12.00
2019-01-16T02:29:08.828Z,14.05
2019-01-16T02:31:55.452Z,15.90
2019-01-16T02:34:42.075Z,13.32
2019-01-16T02:37:17.046Z,16.30
2019-01-16T02:40:03.671Z,17.90
2019-01-16T02:42:50.285Z,12.80
2019-01-16T02:45:36.917Z,12.53
2019-01-16T02:48:23.557Z,13.48
2019-01-16T02:51:10.187Z,14.33
2019-01-16T02:53:46.913Z,20.48
2019-01-16T02:56:33.544Z,16.00
2019-01-16T02:59:29.377Z,12.90
2019-01-16T03:02:16.007Z,11.57
2019-01-16T03:05:02.634Z,13.00
2019-01-16T03:07:37.724Z,13.62
2019-01-16T03:10:24.617Z,13.62
2019-01-16T03:13:11.224Z,14.13
2019-01-16T03:15:57.896Z,12.07
2019-01-16T03:18:42.904Z,17.17
2019-01-16T03:21:29.560Z,13.78
2019-01-16T03:24:17.727Z,13.72
2019-01-16T03:27:10.940Z,15.83
2019-01-16T03:29:47.302Z,13.20
2019-01-16T03:32:33.937Z,14.75
2019-01-16T03:35:08.822Z,15.88
2019-01-16T03:37:55.460Z,15.35
2019-01-16T03:40:42.078Z,13.50
2019-01-16T03:43:28.717Z,13.45
2019-01-16T03:46:15.342Z,12.85
2019-01-16T03:49:01.994Z,22.77
2019-01-16T03:51:48.599Z,19.25
2019-01-16T03:54:35.251Z,17.98
2019-01-16T03:57:21.900Z,15.78
2019-01-16T04:00:08.939Z,21.45
2019-01-16T04:02:55.613Z,11.10
2019-01-16T04:05:33.804Z,11.65
2019-01-16T04:08:20.438Z,12.93
2019-01-16T04:10:59.168Z,18.12
2019-01-16T04:13:45.781Z,12.58
2019-01-16T04:16:32.412Z,13.80
2019-01-16T04:19:21.787Z,11.85
2019-01-16T04:22:14.237Z,15.15
2019-01-16T04:25:00.814Z,15.83
2019-01-16T04:27:47.458Z,15.60
2019-01-16T04:30:34.054Z,16.27
2019-01-16T04:33:20.709Z,14.40
2019-01-16T04:36:07.318Z,12.75
2019-01-16T04:38:53.981Z,15.93
2019-01-16T04:41:40.586Z,17.95
2019-01-16T04:44:27.281Z,18.75
2019-01-16T04:47:13.892Z,16.05
2019-01-16T04:50:00.530Z,14.80
2019-01-16T04:52:47.143Z,15.38
2019-01-16T04:55:26.300Z,22.10
2019-01-16T04:58:06.988Z,16.27
2019-01-16T05:00:53.626Z,18.27
2019-01-16T05:03:40.237Z,18.95
2019-01-16T05:06:24.445Z,15.50
2019-01-16T05:09:11.061Z,17.87
2019-01-16T05:11:57.691Z,13.98
2019-01-16T05:14:44.317Z,15.00
2019-01-16T05:17:31.033Z,17.92
2019-01-16T05:20:11.705Z,19.70
2019-01-16T05:22:58.347Z,22.07
2019-01-16T05:25:44.969Z,17.40
2019-01-16T05:28:31.612Z,23.92
2019-01-16T05:31:18.229Z,16.27
2019-01-16T05:34:04.886Z,21.07
2019-01-16T05:36:51.515Z,16.25
2019-01-16T05:39:38.175Z,15.83
2019-01-16T05:42:24.793Z,23.92
2019-01-16T05:45:11.446Z,27.10
2019-01-16T05:47:58.119Z,22.17
2019-01-16T05:50:44.821Z,17.85
2019-01-16T05:53:31.462Z,24.02
2019-01-16T05:56:18.106Z,20.60
2019-01-16T05:59:04.712Z,15.63
2019-01-16T06:01:51.365Z,15.93
2019-01-16T06:04:38.021Z,20.23
2019-01-16T06:07:24.726Z,18.60
2019-01-16T06:10:11.356Z,16.00
2019-01-16T06:12:58.039Z,13.72
2019-01-16T06:15:32.306Z,15.88
2019-01-16T06:18:18.936Z,15.78
2019-01-16T06:21:05.554Z,19.90
2019-01-16T06:23:52.204Z,13.53
2019-01-16T06:26:38.833Z,19.00
2019-01-16T06:29:25.495Z,25.45
2019-01-16T06:32:12.104Z,22.60
2019-01-16T06:34:58.746Z,18.12
2019-01-16T06:37:45.360Z,18.17
2019-01-16T06:40:32.089Z,16.77
2019-01-16T06:43:18.706Z,17.95
2019-01-16T06:46:05.334Z,17.48
2019-01-16T06:48:51.970Z,21.85
2019-01-16T06:51:38.590Z,15.55
2019-01-16T06:54:25.214Z,17.90
2019-01-16T06:57:11.836Z,30.90
2019-01-16T06:59:58.453Z,28.60
2019-01-16T07:02:45.081Z,27.07
2019-01-16T07:05:31.697Z,22.95
2019-01-16T07:08:18.338Z,24.43
2019-01-16T07:11:04.970Z,30.35
2019-01-16T07:13:51.602Z,22.90
2019-01-16T07:16:38.233Z,33.30
2019-01-16T07:19:24.860Z,30.15
2019-01-16T07:22:11.494Z,23.98
2019-01-16T07:24:58.159Z,18.60
2019-01-16T07:27:44.797Z,20.65
2019-01-16T07:33:25.496Z,31.50
2019-01-16T07:36:12.136Z,37.50
2019-01-16T07:38:49.922Z,27.82
2019-01-16T07:41:36.601Z,30.97
2019-01-16T07:44:23.577Z,25.82
2019-01-16T07:47:10.255Z,26.10
2019-01-16T07:49:56.921Z,28.57
2019-01-16T07:52:43.583Z,27.02
2019-01-16T07:55:30.195Z,30.48
2019-01-16T07:58:16.866Z,29.90
2019-01-16T08:01:03.503Z,28.60
2019-01-16T08:03:50.131Z,29.87
2019-01-16T08:06:36.836Z,27.00
2019-01-16T08:12:26.901Z,63.60
2019-01-16T08:15:13.527Z,61.75
2019-01-16T08:18:00.142Z,36.80
2019-01-16T08:20:46.783Z,28.98
2019-01-16T08:23:33.405Z,29.20
2019-01-16T08:26:20.045Z,28.35
2019-01-16T08:29:06.665Z,32.58
2019-01-16T08:31:46.876Z,30.43
2019-01-16T08:34:33.530Z,34.92
2019-01-16T08:37:20.142Z,31.23
2019-01-16T08:40:06.766Z,22.70
2019-01-16T08:42:53.392Z,24.85
2019-01-16T08:45:40.042Z,27.10
2019-01-16T08:48:26.664Z,25.75
2019-01-16T08:51:13.308Z,29.35
2019-01-16T08:53:59.916Z,28.02
2019-01-16T08:56:46.562Z,23.20
2019-01-16T08:59:33.192Z,24.67
2019-01-16T09:02:19.807Z,33.58
2019-01-16T09:05:00.040Z,33.75
2019-01-16T09:07:46.680Z,22.20
2019-01-16T09:10:33.298Z,19.48
2019-01-16T09:13:19.954Z,15.85
2019-01-16T09:16:06.602Z,33.92
2019-01-16T09:18:46.864Z,15.13
2019-01-16T09:21:33.480Z,17.32
2019-01-16T09:24:20.112Z,18.42
2019-01-16T09:27:06.785Z,16.32
2019-01-16T09:30:01.066Z,17.42
2019-01-16T09:32:47.686Z,17.85
2019-01-16T09:35:34.349Z,16.82
2019-01-16T09:38:20.980Z,18.35
2019-01-16T09:41:07.625Z,17.55
2019-01-16T09:43:54.252Z,21.27
2019-01-16T09:46:39.137Z,17.77
2019-01-16T09:49:25.761Z,14.28
2019-01-16T09:52:12.428Z,22.13
2019-01-16T09:54:59.053Z,21.90
2019-01-16T09:57:45.707Z,23.10
2019-01-16T10:03:37.089Z,26.90
2019-01-16T10:06:23.856Z,19.80
2019-01-16T10:09:10.499Z,16.30
2019-01-16T10:11:57.111Z,23.05
2019-01-16T10:14:47.237Z,17.37
2019-01-16T10:17:33.881Z,14.58
2019-01-16T10:20:20.494Z,16.62
2019-01-16T10:22:58.972Z,17.87
2019-01-16T10:25:45.574Z,16.95
2019-01-16T10:28:32.207Z,17.92
2019-01-16T10:31:18.880Z,19.87
2019-01-16T10:34:05.536Z,19.15
2019-01-16T10:36:52.187Z,25.40
2019-01-16T10:39:38.803Z,18.52
2019-01-16T10:42:25.450Z,14.38
2019-01-16T10:45:12.060Z,15.40
2019-01-16T10:47:58.723Z,15.70
2019-01-16T10:50:45.382Z,22.02
2019-01-16T10:53:23.599Z,19.20
2019-01-16T10:56:10.219Z,18.00
2019-01-16T10:58:50.355Z,17.35
2019-01-16T11:01:37.005Z,17.37
2019-01-16T11:04:11.795Z,15.18
2019-01-16T11:06:58.395Z,21.33
2019-01-16T11:09:45.143Z,19.45
2019-01-16T11:12:31.770Z,20.30
2019-01-16T11:15:18.392Z,13.98
2019-01-16T11:18:07.610Z,20.97
2019-01-16T11:20:45.598Z,15.80
2019-01-16T11:23:32.248Z,18.60
2019-01-16T11:26:18.898Z,16.12
2019-01-16T11:29:04.333Z,16.97
2019-01-16T11:31:50.959Z,18.80
2019-01-16T11:34:37.598Z,15.35
2019-01-16T11:37:24.230Z,14.55
2019-01-16T11:40:10.957Z,15.78
2019-01-16T11:42:57.596Z,15.93
2019-01-16T11:45:44.232Z,14.10
2019-01-16T11:48:30.866Z,11.83
2019-01-16T11:51:18.858Z,14.38
2019-01-16T11:54:12.353Z,13.75
2019-01-16T11:56:58.983Z,13.03
2019-01-16T11:59:34.691Z,15.05
2019-01-16T12:02:21.325Z,13.18
2019-01-16T12:05:07.998Z,12.50
2019-01-16T12:07:46.525Z,14.18
2019-01-16T12:10:33.156Z,16.93
2019-01-16T12:13:19.775Z,12.10
2019-01-16T12:16:06.492Z,16.55
2019-01-16T12:18:51.149Z,10.68
2019-01-16T12:21:37.785Z,15.48
2019-01-16T12:24:24.421Z,23.57
2019-01-16T12:27:11.073Z,16.32
2019-01-16T12:29:57.713Z,14.80
2019-01-16T12:32:44.391Z,11.75
2019-01-16T12:35:31.027Z,12.93
2019-01-16T12:38:17.676Z,11.08
2019-01-16T12:40:57.109Z,17.12
2019-01-16T12:43:43.808Z,10.72
2019-01-16T12:46:30.464Z,11.45
2019-01-16T12:49:17.175Z,9.48
2019-01-16T12:52:03.823Z,9.33
2019-01-16T12:54:50.462Z,5.62
2019-01-16T12:57:37.107Z,8.70
2019-01-16T13:03:26.289Z,6.83
2019-01-16T13:06:12.959Z,10.32
2019-01-16T13:08:59.610Z,7.97
2019-01-16T13:11:46.239Z,8.95
2019-01-16T13:14:32.914Z,5.95
2019-01-16T13:17:19.572Z,7.95
2019-01-16T13:20:06.231Z,14.30
2019-01-16T13:22:52.879Z,8.53
2019-01-16T13:25:39.502Z,9.90
2019-01-16T13:28:26.196Z,7.90
2019-01-16T13:31:12.862Z,12.98
2019-01-16T13:33:59.490Z,8.20
2019-01-16T13:36:46.114Z,13.83
2019-01-16T13:39:32.754Z,13.13
2019-01-16T13:42:15.625Z,7.58
2019-01-16T13:45:02.298Z,10.55
2019-01-16T13:47:48.964Z,9.80
2019-01-16T13:50:35.620Z,6.05
2019-01-16T13:53:22.356Z,11.68
2019-01-16T13:56:08.989Z,15.20
2019-01-16T13:58:47.058Z,11.05
2019-01-16T14:01:33.729Z,9.35
2019-01-16T14:04:09.155Z,8.70
2019-01-16T14:06:55.813Z,12.75
2019-01-16T14:09:42.452Z,12.45
2019-01-16T14:12:29.122Z,12.45
2019-01-16T14:15:15.769Z,11.57
2019-01-16T14:18:02.415Z,14.78
2019-01-16T14:20:49.062Z,11.40
2019-01-16T14:23:35.741Z,13.28
2019-01-16T14:26:22.390Z,8.90
2019-01-16T14:29:11.888Z,12.18
2019-01-16T14:32:04.491Z,15.15
2019-01-16T14:34:51.142Z,11.12
2019-01-16T14:37:37.799Z,9.40
2019-01-16T14:40:25.625Z,10.03
2019-01-16T14:43:04.979Z,10.65
2019-01-16T14:45:51.628Z,15.83
2019-01-16T14:48:38.303Z,12.73
2019-01-16T14:54:26.117Z,13.98
2019-01-16T14:57:12.766Z,12.15
2019-01-16T14:59:59.415Z,23.50
2019-01-16T15:02:46.118Z,8.93
2019-01-16T15:05:32.892Z,14.93
2019-01-16T15:08:19.596Z,11.33
2019-01-16T15:11:06.232Z,12.85
2019-01-16T15:13:52.900Z,11.00
2019-01-16T15:16:39.638Z,11.95
2019-01-16T15:19:26.274Z,11.55
2019-01-16T15:22:12.939Z,9.93
2019-01-16T15:24:59.593Z,14.63
2019-01-16T15:27:46.229Z,18.12
2019-01-16T15:33:34.660Z,16.57
2019-01-16T15:36:21.585Z,16.20
2019-01-16T15:39:08.391Z,18.45
2019-01-16T15:41:55.024Z,19.12
2019-01-16T15:44:41.676Z,16.05
2019-01-16T15:47:28.328Z,13.25
2019-01-16T15:50:14.973Z,11.97
2019-01-16T15:53:01.656Z,11.05
2019-01-16T15:55:48.296Z,14.25
2019-01-16T15:58:34.968Z,14.07
2019-01-16T16:01:21.638Z,14.25
2019-01-16T16:04:08.329Z,16.52
2019-01-16T16:06:55.018Z,14.30
2019-01-16T16:09:41.687Z,12.82
2019-01-16T16:12:28.314Z,14.93
2019-01-16T16:15:14.987Z,11.63
2019-01-16T16:18:01.652Z,14.15
2019-01-16T16:20:48.784Z,14.83
2019-01-16T16:23:35.465Z,14.20
2019-01-16T16:26:22.127Z,23.35
2019-01-16T16:29:08.803Z,17.42
2019-01-16T16:31:55.488Z,17.05
2019-01-16T16:34:42.155Z,12.05
2019-01-16T16:37:29.444Z,15.08
2019-01-16T16:40:16.197Z,15.00
2019-01-16T16:42:53.584Z,10.23
2019-01-16T16:45:40.561Z,9.15
2019-01-16T16:48:27.297Z,16.35
2019-01-16T16:51:14.650Z,23.22
2019-01-16T16:54:01.661Z,43.05
2019-01-16T16:56:48.442Z,25.08
2019-01-16T16:59:35.384Z,23.02
2019-01-16T17:02:22.542Z,27.77
2019-01-16T17:05:09.390Z,18.92
2019-01-16T17:07:44.699Z,23.85
2019-01-16T17:10:31.466Z,20.12
2019-01-16T17:13:18.189Z,26.37
2019-01-16T17:16:05.133Z,20.57
2019-01-16T17:19:11.366Z,25.57
2019-01-16T17:21:50.137Z,43.23
2019-01-16T17:24:36.863Z,39.33
2019-01-16T17:27:13.428Z,34.05
2019-01-16T17:30:00.227Z,34.83
2019-01-16T17:32:46.989Z,40.45
2019-01-16T17:35:33.974Z,48.23
2019-01-16T17:38:20.728Z,38.23
2019-01-16T17:41:07.427Z,41.28
2019-01-16T17:43:54.530Z,40.25
2019-01-16T17:46:41.269Z,46.77
2019-01-16T17:49:28.612Z,47.00
2019-01-16T17:52:15.411Z,43.33
2019-01-16T17:55:02.712Z,46.92
2019-01-16T17:57:50.120Z,46.23
2019-01-16T18:00:36.905Z,41.60
2019-01-16T18:03:24.270Z,49.48
2019-01-16T18:06:11.058Z,49.70
2019-01-16T18:08:57.799Z,43.08
2019-01-16T18:11:44.964Z,36.10
2019-01-16T18:14:32.031Z,37.88
2019-01-16T18:17:19.251Z,46.53
2019-01-16T18:20:06.912Z,38.83
2019-01-16T18:25:54.716Z,36.05
2019-01-16T18:29:04.102Z,35.78
2019-01-16T18:31:49.826Z,47.58
2019-01-16T18:34:37.207Z,43.73
2019-01-16T18:37:39.725Z,43.52
2019-01-16T18:40:31.744Z,35.73
2019-01-16T18:43:24.664Z,30.62
2019-01-16T18:46:14.269Z,44.18
2019-01-16T18:49:07.309Z,48.42
2019-01-16T18:52:03.625Z,43.85
2019-01-16T18:54:42.045Z,52.65
2019-01-16T18:57:38.380Z,48.83
2019-01-16T19:00:31.780Z,51.83
2019-01-16T19:03:34.021Z,38.60
2019-01-16T19:06:23.322Z,39.80
2019-01-16T19:09:16.044Z,38.35
2019-01-16T19:12:13.562Z,41.83
2019-01-16T19:15:05.742Z,31.77
2019-01-16T19:17:52.567Z,31.60
2019-01-16T19:20:34.467Z,35.20
2019-01-16T19:23:22.038Z,37.42
2019-01-16T19:26:08.192Z,25.15
2019-01-16T19:28:57.976Z,27.30
2019-01-16T19:31:51.278Z,24.40
2019-01-16T19:34:34.532Z,20.15
2019-01-16T19:37:20.642Z,23.30
2019-01-16T19:40:25.387Z,26.68
2019-01-16T19:43:12.112Z,26.97
2019-01-16T19:46:11.630Z,23.92
2019-01-16T19:49:01.901Z,26.37
2019-01-16T19:51:39.691Z,20.77
2019-01-16T19:54:27.767Z,29.18
2019-01-16T19:57:31.290Z,22.70
2019-01-16T20:00:22.406Z,30.45
2019-01-16T20:03:10.917Z,37.70
2019-01-16T20:05:57.100Z,28.55
2019-01-16T20:08:47.176Z,32.33
2019-01-16T20:11:40.354Z,34.40
2019-01-16T20:14:31.933Z,30.27
2019-01-16T20:17:27.466Z,24.90
2019-01-16T20:20:20.686Z,36.45
2019-01-16T20:23:17.482Z,31.75
2019-01-16T20:26:15.665Z,39.13
2019-01-16T20:29:02.258Z,37.00
2019-01-16T20:31:49.726Z,38.50
2019-01-16T20:34:42.032Z,34.00
2019-01-16T20:37:44.041Z,28.67
2019-01-16T20:40:34.487Z,22.73
2019-01-16T20:43:26.804Z,25.25
2019-01-16T20:46:19.908Z,21.20
2019-01-16T20:49:27.427Z,23.67
2019-01-16T20:52:13.054Z,28.80
2019-01-16T20:54:49.313Z,22.80
2019-01-16T20:57:50.683Z,28.87
2019-01-16T21:00:37.760Z,24.95
2019-01-16T21:03:37.507Z,29.27
2019-01-16T21:06:23.729Z,30.57
2019-01-16T21:09:16.523Z,28.75
2019-01-16T21:12:06.730Z,45.52
2019-01-16T21:15:00.775Z,37.03
2019-01-16T21:17:50.146Z,31.27
2019-01-16T21:20:27.573Z,31.80
2019-01-16T21:23:13.483Z,22.73
2019-01-16T21:25:53.575Z,26.17
2019-01-16T21:28:40.895Z,26.02
2019-01-16T21:31:30.929Z,22.40
2019-01-16T21:34:25.725Z,25.57
2019-01-16T21:37:11.404Z,25.50
2019-01-16T21:39:57.097Z,25.08
2019-01-16T21:42:56.127Z,23.07
2019-01-16T21:45:41.563Z,19.90
2019-01-16T21:48:19.308Z,16.52
2019-01-16T21:51:04.925Z,18.07
2019-01-16T21:53:54.175Z,19.25
2019-01-16T21:56:46.845Z,21.52
2019-01-16T21:59:31.834Z,26.10
2019-01-16T22:02:08.513Z,20.70
2019-01-16T22:04:58.225Z,21.50
2019-01-16T22:07:47.724Z,20.08
2019-01-16T22:10:37.687Z,19.60
2019-01-16T22:13:18.283Z,18.73
2019-01-16T22:16:02.585Z,17.17
2019-01-16T22:18:49.283Z,20.37
2019-01-16T22:21:45.064Z,14.05
2019-01-16T22:24:34.879Z,20.97
2019-01-16T22:27:24.528Z,15.13
2019-01-16T22:30:26.253Z,15.63
2019-01-16T22:33:08.938Z,16.70
2019-01-16T22:35:50.351Z,16.02
2019-01-16T22:38:33.031Z,18.27
2019-01-16T22:41:22.930Z,11.18
2019-01-16T22:43:57.630Z,10.80
2019-01-16T22:46:59.387Z,11.88
2019-01-16T22:49:45.748Z,12.20
2019-01-16T22:52:27.538Z,11.08
2019-01-16T22:55:32.322Z,9.20
2019-01-16T22:58:27.520Z,17.55
2019-01-16T23:01:14.686Z,11.78
2019-01-16T23:04:16.356Z,14.85
2019-01-16T23:06:50.088Z,13.78
2019-01-16T23:09:42.471Z,11.68
2019-01-16T23:12:27.704Z,13.62
2019-01-16T23:15:12.473Z,12.98
2019-01-16T23:17:53.490Z,15.28
2019-01-16T23:20:38.601Z,17.60
2019-01-16T23:23:15.123Z,13.45
2019-01-16T23:26:00.376Z,20.70
2019-01-16T23:28:45.671Z,16.00
2019-01-16T23:31:38.522Z,15.38
2019-01-16T23:34:31.225Z,21.35
2019-01-16T23:37:16.611Z,20.30
2019-01-16T23:40:05.832Z,11.75
2019-01-16T23:43:01.565Z,13.72
2019-01-16T23:45:42.342Z,14.70
2019-01-16T23:48:28.999Z,12.95
2019-01-16T23:51:15.777Z,17.77
2019-01-16T23:54:05.243Z,28.42
2019-01-16T23:56:47.322Z,22.13
2019-01-16T23:59:32.182Z,12.35
